Lulu Pass Weather Station

This weather station provides temperature, relative humidity (RH), wind speed, gust or max wind speed, and wind direction at 10014ft near Lulu Pass at the head of Fisher Creek. This data can be used with temperature and precipitation data from the Fisher Creek SNOTEL site.

This weather station was purchased by the Friends of the Avalanche Center.

If the data has not been updated recently you can view it directly on datagarrison.com

Elevation
10014ft
Jump to table bottom
Date Time Temperature
deg F
RH, % Wind Speed Wind Gust Wind Direction
12/02/21 19:00 28.5 99 11 35 SW - 230
12/02/21 18:00 29.0 100 15 36 SW - 220
12/02/21 17:00 29.5 100 14 31 SW - 218
12/02/21 16:00 30.7 100 15 37 SW - 215
12/02/21 15:00 30.4 100 19 40 SW - 211
12/02/21 14:00 30.8 100 16 37 SW - 223
12/02/21 13:00 31.2 100 17 38 SW - 218
12/02/21 12:00 30.2 100 18 36 SW - 216
12/02/21 11:00 30.2 100 16 36 SW - 220
12/02/21 10:00 30.0 100 14 40 SW - 230
12/02/21 09:00 29.8 99 19 39 SW - 222
12/02/21 08:00 29.8 99 16 39 SW - 223
12/02/21 07:00 29.7 99 15 31 SW - 226
12/02/21 06:00 29.9 99 14 29 SW - 220
12/02/21 05:00 29.6 99 12 30 SW - 220
12/02/21 04:00 29.4 99 10 25 SW - 243
12/02/21 03:00 28.7 99 13 27 W - 284
12/02/21 02:00 28.4 99 15 27 W - 271
12/02/21 01:00 28.6 99 19 32 W - 277
12/02/21 00:00 28.7 99 16 29 W - 274
12/01/21 23:00 28.5 99 14 26 W - 267
12/01/21 22:00 28.1 99 13 28 W - 260
12/01/21 21:00 28.0 99 11 26 W - 257
12/01/21 20:00 27.2 98 11 27 W - 261
12/01/21 19:00 27.2 98 11 26 W - 256
12/01/21 18:00 27.3 98 11 27 W - 260
12/01/21 17:00 27.3 98 13 31 SW - 246
12/01/21 16:00 27.5 98 12 31 SW - 244
12/01/21 15:00 27.5 98 11 27 SW - 241
12/01/21 14:00 27.2 98 11 26 W - 254
12/01/21 13:00 26.4 98 7 19 SW - 243
12/01/21 12:00 24.9 97 7 16 SW - 215
12/01/21 11:00 24.2 97 6 14 SW - 219
12/01/21 10:00 24.4 97 7 14 SW - 208
12/01/21 09:00 24.6 97 8 17 S - 199
12/01/21 08:00 24.4 97 5 13 SW - 226
12/01/21 07:00 24.7 97 7 14 SW - 206
12/01/21 06:00 24.4 97 8 16 SW - 208
12/01/21 05:00 23.5 97 6 15 S - 202
12/01/21 04:00 23.2 96 4 12 SW - 247
12/01/21 03:00 21.8 96 5 12 W - 251
12/01/21 02:00 20.5 96 6 17 SW - 220
12/01/21 01:00 20.0 96 9 18 SW - 213
12/01/21 00:00 20.7 96 9 19 SW - 204
11/30/21 23:00 20.8 96 8 20 S - 202
11/30/21 22:00 20.6 96 7 16 SW - 216
11/30/21 21:00 20.9 96 5 19 SW - 218
11/30/21 20:00 20.6 96 9 22 SW - 229
11/30/21 19:00 20.7 96 9 22 SW - 234
11/30/21 18:00 20.7 96 11 27 W - 267